Time;durP1;ratioP1;P1;durP2;ratioP2;P2;SDS_P1;SDS_P2;PMS_P1;PMS_P2;Temp;Humidity;BMP_temperature;BMP_pressure;BME280_temperature;BME280_humidity;BME280_pressure;Samples;Min_cycle;Max_cycle;Signal;HPM_P1;HPM_P2
2022/02/01 00:00:43;;;;;;;9.15;4.20;;;3.10;62.60;;;;;;5139307;27;20050;-42
2022/02/01 00:03:14;;;;;;;9.50;4.28;;;3.10;62.70;;;;;;5139494;27;20369;-42
2022/02/01 00:08:21;;;;;;;10.60;4.30;;;3.10;62.60;;;;;;5139270;27;20051;-33
2022/02/01 00:11:04;;;;;;;10.48;3.58;;;3.10;62.50;;;;;;5139277;27;20454;-43
2022/02/01 00:35:33;;;;;;;6.35;3.40;;;3.00;62.30;;;;;;5138892;27;20080;-35
2022/02/01 00:38:03;;;;;;;9.05;3.45;;;3.00;62.30;;;;;;5139030;27;20050;-43
2022/02/01 00:40:29;;;;;;;8.57;3.70;;;3.00;62.40;;;;;;5138489;27;20106;-34
2022/02/01 00:42:55;;;;;;;11.93;4.63;;;3.00;62.40;;;;;;5138886;27;20111;-43
2022/02/01 00:45:21;;;;;;;8.55;4.50;;;3.00;62.20;;;;;;5138157;27;20440;-32
2022/02/01 00:47:47;;;;;;;7.22;3.83;;;3.00;62.50;;;;;;5138740;27;20288;-33
2022/02/01 00:50:15;;;;;;;8.50;4.10;;;3.00;62.60;;;;;;5138169;27;20039;-34
2022/02/01 00:52:41;;;;;;;8.73;4.22;;;3.00;62.60;;;;;;5138523;27;20122;-33
2022/02/01 00:55:07;;;;;;;9.07;3.78;;;3.00;62.60;;;;;;5138198;27;20187;-43
2022/02/01 00:57:33;;;;;;;9.60;3.88;;;3.00;62.50;;;;;;5138529;27;20027;-43
2022/02/01 00:59:59;;;;;;;6.35;3.60;;;3.00;62.50;;;;;;5137924;27;20131;-33
2022/02/01 01:02:24;;;;;;;9.07;4.40;;;3.10;62.40;;;;;;5137963;27;20031;-42
2022/02/01 01:04:50;;;;;;;9.07;4.22;;;3.00;62.40;;;;;;5137705;27;20031;-33
2022/02/01 01:07:16;;;;;;;14.63;4.20;;;3.00;62.30;;;;;;5138380;27;20110;-43
2022/02/01 01:09:41;;;;;;;11.25;4.68;;;3.00;62.30;;;;;;5137677;27;20406;-36
2022/02/01 01:12:08;;;;;;;12.68;4.57;;;3.00;62.10;;;;;;5138049;27;20210;-35
2022/02/01 01:18:12;;;;;;;14.07;3.72;;;3.00;62.40;;;;;;5081355;27;20035;-43
2022/02/01 01:45:01;;;;;;;9.25;4.53;;;3.00;62.30;;;;;;5137209;27;20034;-34
2022/02/01 01:55:34;;;;;;;10.57;4.32;;;2.90;62.40;;;;;;5137358;27;20069;-44
2022/02/01 01:58:01;;;;;;;13.50;4.70;;;2.90;62.40;;;;;;5137384;27;20080;-43
2022/02/01 02:03:11;;;;;;;11.50;4.50;;;2.90;62.50;;;;;;5137591;27;20133;-32
2022/02/01 02:05:36;;;;;;;11.30;4.30;;;2.90;62.70;;;;;;5136721;27;20106;-43
2022/02/01 02:08:04;;;;;;;10.27;4.30;;;2.90;63.20;;;;;;5136876;27;20140;-43
2022/02/01 02:10:35;;;;;;;11.95;4.47;;;2.90;62.60;;;;;;5136933;27;20129;-32
2022/02/01 02:15:55;;;;;;;12.40;4.75;;;2.90;62.60;;;;;;5137055;27;20118;-33
2022/02/01 02:18:21;;;;;;;12.25;4.75;;;2.80;62.50;;;;;;5137416;27;20407;-43
2022/02/01 02:20:48;;;;;;;12.38;5.07;;;2.80;62.60;;;;;;5136575;28;20106;-33
2022/02/01 02:23:14;;;;;;;15.40;4.82;;;2.80;62.60;;;;;;5137348;28;20043;-33
2022/02/01 02:25:40;;;;;;;10.88;4.78;;;2.80;62.60;;;;;;5136684;28;20043;-32
2022/02/01 02:28:08;;;;;;;15.18;4.70;;;2.80;62.70;;;;;;5137305;28;20045;-34
2022/02/01 02:30:34;;;;;;;13.77;5.28;;;2.80;62.80;;;;;;5136888;28;20062;-32
2022/02/01 02:33:05;;;;;;;12.55;5.75;;;2.80;62.80;;;;;;5137112;28;20055;-43
2022/02/01 02:35:34;;;;;;;;;;;2.80;62.70;;;;;;5137058;28;20381;-42
2022/02/01 02:38:08;;;;;;;16.52;6.60;;;2.80;62.70;;;;;;5137138;28;19908;-44
2022/02/01 02:45:55;;;;;;;10.35;4.38;;;2.70;62.80;;;;;;5140706;27;20111;-33
2022/02/01 02:48:21;;;;;;;9.13;4.22;;;2.70;62.80;;;;;;5141133;27;20106;-33
2022/02/01 02:50:47;;;;;;;15.65;4.88;;;2.60;62.70;;;;;;5140851;27;20053;-43
2022/02/01 02:53:13;;;;;;;10.98;4.70;;;2.60;62.70;;;;;;5141081;27;20342;-32
2022/02/01 02:55:38;;;;;;;12.57;5.22;;;2.60;62.90;;;;;;5140637;27;20091;-34
2022/02/01 02:58:04;;;;;;;12.68;5.28;;;2.50;63.00;;;;;;5141031;27;20027;-43
2022/02/01 03:00:29;;;;;;;13.68;4.68;;;2.50;63.10;;;;;;5140614;27;20320;-38
2022/02/01 03:02:55;;;;;;;15.05;5.13;;;2.50;63.20;;;;;;5140747;27;20472;-33
2022/02/01 03:05:21;;;;;;;12.45;5.18;;;2.40;63.30;;;;;;5140468;27;20023;-33
2022/02/01 03:07:46;;;;;;;15.70;6.53;;;2.40;63.40;;;;;;5140377;27;20074;-43
2022/02/01 03:10:12;;;;;;;14.30;4.80;;;2.40;63.50;;;;;;5140303;27;20035;-43
2022/02/01 03:20:43;;;;;;;11.85;4.93;;;2.30;63.80;;;;;;5140298;27;20041;-34
2022/02/01 03:23:09;;;;;;;11.73;4.60;;;2.20;63.80;;;;;;5140404;27;20411;-33
2022/02/01 03:25:34;;;;;;;13.82;5.00;;;2.20;63.90;;;;;;5139815;27;20066;-36
2022/02/01 03:28:00;;;;;;;15.52;5.55;;;2.20;63.90;;;;;;5140442;27;20126;-34
2022/02/01 03:30:26;;;;;;;16.45;5.50;;;2.20;63.90;;;;;;5140061;27;20024;-37
2022/02/01 03:32:52;;;;;;;11.32;5.00;;;2.20;63.90;;;;;;5140116;27;20050;-43
2022/02/01 03:35:17;;;;;;;13.93;5.28;;;2.10;64.00;;;;;;5139980;27;20304;-43
2022/02/01 03:37:43;;;;;;;12.63;4.97;;;2.10;64.00;;;;;;5140006;27;20027;-32
2022/02/01 03:40:14;;;;;;;13.32;5.68;;;2.10;64.10;;;;;;5139677;27;20067;-43
2022/02/01 03:42:40;;;;;;;9.98;4.80;;;2.00;64.20;;;;;;5139732;27;20027;-32
2022/02/01 03:45:06;;;;;;;11.93;5.03;;;2.00;64.30;;;;;;5139869;27;20035;-36
2022/02/01 03:47:32;;;;;;;11.95;4.70;;;2.00;64.30;;;;;;5140096;27;20057;-36
2022/02/01 03:49:59;;;;;;;14.38;5.18;;;2.00;64.30;;;;;;5139315;27;20281;-43
2022/02/01 03:52:25;;;;;;;14.93;5.97;;;1.90;64.30;;;;;;5138980;27;20023;-43
2022/02/01 03:54:51;;;;;;;10.07;5.70;;;1.90;64.40;;;;;;5139284;27;20039;-43
2022/02/01 03:57:17;;;;;;;13.05;5.30;;;1.80;64.50;;;;;;5139571;27;20031;-34
2022/02/01 03:59:46;;;;;;;12.77;4.70;;;1.80;64.60;;;;;;5139127;27;20045;-42
2022/02/01 04:02:14;;;;;;;11.00;4.72;;;1.80;64.70;;;;;;5139661;27;20024;-42
2022/02/01 04:04:40;;;;;;;17.92;5.13;;;1.80;64.80;;;;;;5139180;27;20423;-43
2022/02/01 04:07:08;;;;;;;17.05;5.85;;;1.70;64.80;;;;;;5139522;27;20031;-33
2022/02/01 04:09:35;;;;;;;14.25;5.05;;;1.70;64.90;;;;;;5138883;27;20116;-32
2022/02/01 04:12:03;;;;;;;15.10;6.35;;;1.70;64.90;;;;;;5139516;27;20415;-32
2022/02/01 04:14:30;;;;;;;14.10;5.00;;;1.70;64.90;;;;;;5138863;27;20083;-38
2022/02/01 04:16:58;;;;;;;14.82;5.57;;;1.70;65.00;;;;;;5139484;27;20031;-33
2022/02/01 04:19:25;;;;;;;13.90;5.43;;;1.70;65.00;;;;;;5138783;27;20039;-32
2022/02/01 04:22:03;;;;;;;13.93;5.82;;;1.60;65.00;;;;;;5138842;27;20084;-32
2022/02/01 04:24:37;;;;;;;16.00;5.45;;;1.60;65.00;;;;;;5139020;27;20348;-32
2022/02/01 04:27:04;;;;;;;13.45;5.75;;;1.60;65.10;;;;;;5138906;27;20050;-43
2022/02/01 04:29:30;;;;;;;18.33;5.53;;;1.50;65.20;;;;;;5138736;27;20028;-35
2022/02/01 04:31:56;;;;;;;10.73;5.22;;;1.50;65.20;;;;;;5138887;27;20280;-42
2022/02/01 04:34:22;;;;;;;16.05;6.10;;;1.50;65.40;;;;;;5138520;27;20092;-33
2022/02/01 04:36:48;;;;;;;13.02;6.05;;;1.50;65.40;;;;;;5138636;27;20043;-42
2022/02/01 04:39:13;;;;;;;17.10;5.97;;;1.40;65.40;;;;;;5138920;27;20023;-42
2022/02/01 04:41:39;;;;;;;13.77;5.50;;;1.40;65.50;;;;;;5138555;27;20023;-33
2022/02/01 04:44:05;;;;;;;13.00;6.10;;;1.40;65.60;;;;;;5138732;27;20027;-33
2022/02/01 04:46:31;;;;;;;11.93;5.95;;;1.40;65.60;;;;;;5138641;27;20020;-43
2022/02/01 04:49:05;;;;;;;15.93;6.88;;;1.40;65.60;;;;;;5138629;27;20059;-33
2022/02/01 04:51:30;;;;;;;17.27;6.50;;;1.40;65.70;;;;;;5138247;27;20031;-33
2022/02/01 04:53:57;;;;;;;12.57;5.35;;;1.40;65.70;;;;;;5138553;27;20024;-33
2022/02/01 04:56:24;;;;;;;20.83;6.07;;;1.40;65.70;;;;;;5138277;27;20039;-32
2022/02/01 04:58:50;;;;;;;14.48;5.32;;;1.40;65.80;;;;;;5138694;27;20031;-34
2022/02/01 05:01:17;;;;;;;14.50;5.50;;;1.30;65.80;;;;;;5137667;27;20031;-34
2022/02/01 05:03:43;;;;;;;18.10;5.90;;;1.40;65.80;;;;;;5138343;27;20037;-42
2022/02/01 05:06:11;;;;;;;12.25;5.45;;;1.30;65.80;;;;;;5137895;27;20031;-34
2022/02/01 05:08:36;;;;;;;15.95;6.43;;;1.30;65.80;;;;;;5137883;27;20043;-34
2022/02/01 05:11:02;;;;;;;16.48;8.02;;;1.30;65.80;;;;;;5137913;27;20118;-44
2022/02/01 05:16:23;;;;;;;25.70;7.03;;;1.40;66.00;;;;;;5137895;27;20072;-32
2022/02/01 05:18:49;;;;;;;19.13;9.18;;;1.40;65.90;;;;;;5137493;27;20073;-32
2022/02/01 05:21:25;;;;;;;19.20;9.20;;;1.40;65.90;;;;;;5137536;27;20086;-32
2022/02/01 05:23:52;;;;;;;24.33;11.23;;;1.50;66.00;;;;;;5138045;27;20326;-32
2022/02/01 05:26:20;;;;;;;18.50;8.25;;;1.50;65.90;;;;;;5137404;27;20035;-42
2022/02/01 05:28:46;;;;;;;17.95;8.25;;;1.60;65.80;;;;;;5137996;27;20031;-42
2022/02/01 05:31:12;;;;;;;19.85;9.60;;;1.50;65.60;;;;;;5137224;27;20431;-43
2022/02/01 05:33:38;;;;;;;24.20;11.10;;;1.60;65.70;;;;;;5137875;27;20063;-32
2022/02/01 05:36:05;;;;;;;24.45;11.20;;;1.50;65.60;;;;;;5137262;27;20080;-36
2022/02/01 05:38:31;;;;;;;26.08;10.38;;;1.60;65.70;;;;;;5137678;27;20038;-34
2022/02/01 05:40:57;;;;;;;24.80;9.38;;;1.60;65.80;;;;;;5137312;27;20031;-33
2022/02/01 05:43:26;;;;;;;17.60;8.00;;;1.60;65.70;;;;;;5137101;27;20389;-43
2022/02/01 05:45:55;;;;;;;31.35;8.75;;;1.60;65.60;;;;;;5137137;27;20039;-33
2022/02/01 05:48:21;;;;;;;18.05;8.52;;;1.60;65.60;;;;;;5137593;27;20027;-33
2022/02/01 05:50:51;;;;;;;29.80;11.35;;;1.60;65.60;;;;;;5137017;27;20032;-42
2022/02/01 05:53:18;;;;;;;21.55;8.93;;;1.60;65.70;;;;;;5137567;27;20172;-35
2022/02/01 05:55:46;;;;;;;27.27;10.13;;;1.60;65.70;;;;;;5136883;27;20424;-33
2022/02/01 05:58:13;;;;;;;21.13;9.35;;;1.60;65.60;;;;;;5137315;27;20042;-33
2022/02/01 06:00:39;;;;;;;20.58;9.05;;;1.60;65.70;;;;;;5136719;27;20116;-43
2022/02/01 06:03:05;;;;;;;17.73;9.07;;;1.60;65.70;;;;;;5136661;27;20055;-32
2022/02/01 06:05:31;;;;;;;22.20;9.57;;;1.60;65.80;;;;;;5136658;27;20055;-34
2022/02/01 06:07:57;;;;;;;19.05;8.85;;;1.60;65.70;;;;;;5136884;27;20110;-43
2022/02/01 06:10:23;;;;;;;23.25;10.32;;;1.60;65.60;;;;;;5136873;27;20119;-35
2022/02/01 06:12:49;;;;;;;28.48;13.43;;;1.60;65.70;;;;;;5136705;27;20030;-42
2022/02/01 06:15:18;;;;;;;28.30;10.50;;;1.60;65.80;;;;;;5136020;27;20035;-43
2022/02/01 06:17:43;;;;;;;27.05;10.15;;;1.70;65.80;;;;;;5137038;27;20023;-40
2022/02/01 06:20:11;;;;;;;23.70;10.98;;;1.70;65.80;;;;;;5136532;27;20057;-34
2022/02/01 06:22:37;;;;;;;26.58;12.52;;;1.70;65.80;;;;;;5136825;28;20395;-32
2022/02/01 06:25:05;;;;;;;30.10;13.20;;;1.70;65.80;;;;;;5136417;28;20110;-32
2022/02/01 06:27:31;;;;;;;28.95;11.90;;;1.80;65.80;;;;;;5136761;28;20023;-32
2022/02/01 06:29:56;;;;;;;25.90;12.10;;;1.80;65.80;;;;;;5136693;28;20060;-32
2022/02/01 06:32:22;;;;;;;31.10;13.07;;;1.80;65.70;;;;;;5136690;28;20027;-42
2022/02/01 06:34:48;;;;;;;33.00;13.55;;;1.90;65.70;;;;;;5136396;28;20088;-33
2022/02/01 06:37:14;;;;;;;37.67;15.60;;;1.90;65.80;;;;;;5136823;28;20028;-32
2022/02/01 06:39:40;;;;;;;30.42;12.27;;;1.90;65.70;;;;;;5136083;28;20035;-32
2022/02/01 06:42:08;;;;;;;31.35;11.98;;;1.90;65.80;;;;;;5136459;28;20311;-43
2022/02/01 06:44:33;;;;;;;24.23;10.82;;;2.00;65.80;;;;;;5136470;28;20471;-32
2022/02/01 06:46:59;;;;;;;23.38;11.13;;;2.00;65.60;;;;;;5136547;28;20102;-42
2022/02/01 06:49:25;;;;;;;19.70;8.35;;;2.00;65.60;;;;;;5136435;28;20114;-33
2022/02/01 06:51:50;;;;;;;23.05;9.95;;;2.10;65.70;;;;;;5136613;28;20399;-41
2022/02/01 06:54:16;;;;;;;26.15;10.38;;;2.10;65.60;;;;;;5136380;28;20031;-32
2022/02/01 06:56:42;;;;;;;24.63;9.77;;;2.20;65.60;;;;;;5131850;28;20019;-31
2022/02/01 06:59:09;;;;;;;25.58;8.63;;;2.20;65.50;;;;;;5136284;28;20068;-41
2022/02/01 07:01:34;;;;;;;16.80;7.75;;;2.20;65.30;;;;;;5135792;28;20019;-32
2022/02/01 07:04:02;;;;;;;17.70;8.32;;;2.20;65.30;;;;;;5136028;28;20034;-42
2022/02/01 07:06:31;;;;;;;17.50;7.80;;;2.30;65.30;;;;;;5135722;28;20184;-41
2022/02/01 07:08:58;;;;;;;17.02;6.85;;;2.40;65.30;;;;;;5135851;28;20435;-33
2022/02/01 07:11:24;;;;;;;25.67;8.77;;;2.40;65.20;;;;;;5135558;28;20027;-32
2022/02/01 07:13:50;;;;;;;23.80;8.18;;;2.50;65.20;;;;;;5136406;28;20076;-41
2022/02/01 07:16:17;;;;;;;19.23;7.10;;;2.50;65.00;;;;;;5136001;28;20038;-43
2022/02/01 07:18:43;;;;;;;23.63;7.75;;;2.60;64.90;;;;;;5136297;28;20118;-42
2022/02/01 07:21:09;;;;;;;18.42;7.47;;;2.70;64.80;;;;;;5135705;28;20106;-42
2022/02/01 07:23:36;;;;;;;18.10;6.45;;;2.80;64.60;;;;;;5136420;28;20318;-41
2022/02/01 07:26:03;;;;;;;16.98;7.60;;;2.80;64.60;;;;;;5137621;27;20031;-41
2022/02/01 07:28:30;;;;;;;21.98;8.82;;;2.90;64.70;;;;;;5139841;27;20023;-41
2022/02/01 07:30:56;;;;;;;19.25;7.18;;;3.00;64.60;;;;;;5139142;27;20058;-32
2022/02/01 07:33:25;;;;;;;13.73;5.60;;;3.00;64.30;;;;;;5139821;27;20026;-33
2022/02/01 07:35:51;;;;;;;16.05;6.07;;;3.20;64.20;;;;;;5139504;27;20050;-41
2022/02/01 07:38:18;;;;;;;13.32;5.82;;;3.20;63.60;;;;;;5139591;27;20423;-41
2022/02/01 07:40:45;;;;;;;17.35;6.18;;;3.30;63.40;;;;;;5138963;27;20034;-41
2022/02/01 07:43:12;;;;;;;15.32;5.97;;;3.30;63.50;;;;;;5139586;27;20084;-32
2022/02/01 07:45:40;;;;;;;19.55;6.85;;;3.30;63.10;;;;;;5138837;27;20046;-41
2022/02/01 07:48:06;;;;;;;20.52;9.32;;;3.30;62.90;;;;;;5139364;27;20027;-33
2022/02/01 07:50:32;;;;;;;17.67;7.45;;;3.30;62.90;;;;;;5138847;27;20031;-32
2022/02/01 07:52:59;;;;;;;16.85;7.05;;;3.40;62.80;;;;;;5139355;27;20110;-42
2022/02/01 07:55:25;;;;;;;15.90;6.07;;;3.40;62.60;;;;;;5138865;27;20412;-33
2022/02/01 07:57:51;;;;;;;19.65;6.35;;;3.40;62.50;;;;;;5138885;27;20053;-33
2022/02/01 08:00:17;;;;;;;19.05;6.68;;;3.40;62.40;;;;;;5138947;27;20036;-33
2022/02/01 08:02:43;;;;;;;20.60;8.25;;;3.40;62.40;;;;;;5138763;27;20023;-42
2022/02/01 08:05:10;;;;;;;24.17;6.82;;;3.40;62.10;;;;;;5138605;27;20063;-33
2022/02/01 08:07:36;;;;;;;19.40;8.43;;;3.40;62.30;;;;;;5138651;27;20422;-33
2022/02/01 08:10:04;;;;;;;14.98;5.68;;;3.40;62.30;;;;;;5138696;27;20023;-33
2022/02/01 08:17:42;;;;;;;14.18;6.25;;;3.40;62.00;;;;;;5138974;27;20433;-42
2022/02/01 08:20:11;;;;;;;21.15;6.43;;;3.40;62.00;;;;;;5138459;27;20036;-42
2022/02/01 08:22:49;;;;;;;17.33;7.05;;;3.50;62.10;;;;;;5138424;27;20309;-33
2022/02/01 08:25:16;;;;;;;12.15;5.80;;;3.50;62.80;;;;;;5138451;27;20504;-40
2022/02/01 08:27:42;;;;;;;13.02;5.57;;;3.60;62.00;;;;;;5138901;27;20155;-35
2022/02/01 08:30:11;;;;;;;12.43;5.93;;;3.60;61.70;;;;;;5138211;27;20038;-34
2022/02/01 08:32:38;;;;;;;16.27;7.05;;;3.60;61.50;;;;;;5138547;27;20464;-33
2022/02/01 08:35:04;;;;;;;12.43;5.70;;;3.60;61.50;;;;;;5138226;27;20032;-42
2022/02/01 08:37:30;;;;;;;15.20;6.07;;;3.70;61.60;;;;;;5137596;27;20027;-42
2022/02/01 08:39:56;;;;;;;11.60;5.28;;;3.70;61.30;;;;;;5119743;27;20083;-33
2022/02/01 08:42:22;;;;;;;21.50;8.05;;;3.80;61.20;;;;;;5137977;27;20027;-33
2022/02/01 08:44:48;;;;;;;15.55;6.05;;;3.80;61.10;;;;;;5137768;27;20043;-42
2022/02/01 08:47:14;;;;;;;15.65;5.90;;;3.80;61.10;;;;;;5138420;27;20297;-42
2022/02/01 08:49:41;;;;;;;11.45;5.40;;;3.80;60.90;;;;;;5137727;27;20027;-34
2022/02/01 08:52:11;;;;;;;14.13;6.47;;;3.80;60.50;;;;;;5138266;27;20075;-44
2022/02/01 08:54:38;;;;;;;14.32;6.13;;;3.80;60.30;;;;;;5137699;27;20042;-34
2022/02/01 08:59:56;;;;;;;11.50;6.47;;;3.80;60.50;;;;;;5138023;27;20042;-33
2022/02/01 09:02:24;;;;;;;11.43;5.47;;;3.90;60.40;;;;;;5137901;27;20109;-34
2022/02/01 09:04:50;;;;;;;12.20;6.03;;;3.80;60.20;;;;;;5137301;27;20088;-34
2022/02/01 09:07:16;;;;;;;14.60;5.75;;;3.90;60.00;;;;;;5138126;27;20054;-42
2022/02/01 09:09:42;;;;;;;11.40;5.22;;;3.90;60.00;;;;;;5137378;27;20066;-43
2022/02/01 09:12:08;;;;;;;15.63;6.80;;;3.90;59.80;;;;;;5137907;27;20467;-43
2022/02/01 09:14:33;;;;;;;14.77;5.88;;;3.90;60.00;;;;;;5136428;27;20404;-39
2022/02/01 09:17:00;;;;;;;12.50;5.75;;;3.90;59.50;;;;;;5137800;27;20026;-34
2022/02/01 09:19:30;;;;;;;18.50;7.30;;;4.00;59.30;;;;;;5137509;27;20323;-44
2022/02/01 09:21:56;;;;;;;15.30;6.50;;;4.00;59.70;;;;;;5137541;27;20057;-33
2022/02/01 09:24:23;;;;;;;13.82;5.68;;;4.00;59.40;;;;;;5137269;27;20429;-32
2022/02/01 09:26:49;;;;;;;17.23;5.95;;;4.10;59.40;;;;;;5137205;27;20027;-42
2022/02/01 09:29:15;;;;;;;16.23;5.70;;;4.10;59.40;;;;;;5137437;27;20030;-34
2022/02/01 09:31:41;;;;;;;11.75;5.53;;;4.20;60.00;;;;;;5137105;27;20072;-33
2022/02/01 09:34:07;;;;;;;11.70;4.70;;;4.30;59.10;;;;;;5137520;27;20319;-34
2022/02/01 09:36:33;;;;;;;13.32;5.15;;;4.30;58.70;;;;;;5137311;27;20023;-42
2022/02/01 09:38:59;;;;;;;12.70;5.15;;;4.30;58.40;;;;;;5119172;27;20118;-34
2022/02/01 09:41:27;;;;;;;13.68;5.47;;;4.30;58.40;;;;;;5136843;27;20027;-42
2022/02/01 09:43:53;;;;;;;10.98;4.78;;;4.40;58.10;;;;;;5137478;27;20243;-32
2022/02/01 09:46:20;;;;;;;10.52;4.93;;;4.40;58.30;;;;;;5136798;27;20134;-42
2022/02/01 09:48:46;;;;;;;9.15;4.05;;;4.50;57.70;;;;;;5136364;27;20049;-42
2022/02/01 09:51:12;;;;;;;11.23;4.38;;;4.60;57.60;;;;;;5137277;27;20039;-32
2022/02/01 09:53:39;;;;;;;9.27;4.00;;;4.60;57.20;;;;;;5137098;27;20391;-42
2022/02/01 09:56:05;;;;;;;9.02;4.80;;;4.70;56.90;;;;;;5136936;27;20023;-43
2022/02/01 09:58:36;;;;;;;10.60;5.28;;;4.70;56.60;;;;;;5136750;27;20031;-42
2022/02/01 10:01:20;;;;;;;15.90;4.55;;;4.80;56.30;;;;;;5133723;27;20027;-31
2022/02/01 10:03:58;;;;;;;9.93;4.28;;;4.90;56.20;;;;;;5137113;27;20035;-32
2022/02/01 10:06:32;;;;;;;10.65;4.88;;;4.90;56.00;;;;;;5136251;27;20027;-41
2022/02/01 10:09:05;;;;;;;24.17;11.27;;;4.90;55.60;;;;;;5136379;27;20133;-41
2022/02/01 10:11:38;;;;;;;8.30;3.60;;;5.00;55.40;;;;;;5135971;27;20031;-41
2022/02/01 10:14:06;;;;;;;15.80;4.22;;;5.00;54.90;;;;;;5136733;27;20027;-41
2022/02/01 10:16:40;;;;;;;12.40;4.35;;;5.00;54.10;;;;;;5136042;27;20108;-32
2022/02/01 10:19:10;;;;;;;16.23;4.88;;;5.00;54.00;;;;;;5137037;27;20038;-33
2022/02/01 10:21:50;;;;;;;13.95;4.90;;;5.00;54.60;;;;;;5135589;27;20031;-32
2022/02/01 10:24:26;;;;;;;12.77;5.40;;;5.00;53.90;;;;;;5136364;28;20031;-41
2022/02/01 10:26:52;;;;;;;16.25;4.57;;;4.90;54.10;;;;;;5135903;28;20282;-34
2022/02/01 10:29:21;;;;;;;10.02;4.82;;;4.80;54.50;;;;;;5135049;28;20339;-34
2022/02/01 10:31:53;;;;;;;12.52;3.65;;;4.80;53.90;;;;;;5135316;28;20027;-41
2022/02/01 10:37:14;;;;;;;7.82;3.47;;;4.80;53.70;;;;;;5136671;28;20152;-42
2022/02/01 10:39:40;;;;;;;13.38;4.43;;;4.80;53.30;;;;;;5135356;28;20328;-42
2022/02/01 10:42:12;;;;;;;8.07;3.25;;;4.80;53.50;;;;;;5135129;28;20422;-32
2022/02/01 10:44:46;;;;;;;8.73;4.32;;;4.80;52.20;;;;;;5135395;28;20496;-43
2022/02/01 10:47:15;;;;;;;6.70;3.33;;;4.80;52.00;;;;;;5136056;28;20024;-32
2022/02/01 10:49:41;;;;;;;13.27;4.43;;;4.80;52.00;;;;;;5135437;28;20403;-40
2022/02/01 10:52:09;;;;;;;7.05;3.70;;;4.80;51.50;;;;;;5136411;28;20037;-32
2022/02/01 10:54:37;;;;;;;11.48;3.53;;;4.80;51.60;;;;;;5136228;28;20027;-32
2022/02/01 10:57:05;;;;;;;6.68;3.05;;;4.70;52.10;;;;;;5136340;28;20027;-36
2022/02/01 10:59:31;;;;;;;6.93;3.20;;;4.70;51.10;;;;;;5135633;27;20391;-41
2022/02/01 11:02:00;;;;;;;10.18;4.60;;;4.70;51.40;;;;;;5140393;27;20079;-42
2022/02/01 11:04:28;;;;;;;9.80;3.85;;;4.70;51.70;;;;;;5139756;27;20433;-32
2022/02/01 11:06:54;;;;;;;12.50;4.10;;;4.70;51.60;;;;;;5138919;27;20062;-36
2022/02/01 11:09:22;;;;;;;7.43;3.80;;;4.80;51.60;;;;;;5139565;27;20067;-32
2022/02/01 11:12:08;;;;;;;10.27;4.22;;;4.80;51.90;;;;;;5139950;27;20029;-33
2022/02/01 11:14:47;;;;;;;12.27;5.68;;;4.80;52.00;;;;;;5139469;27;20096;-40
2022/02/01 11:17:18;;;;;;;7.40;3.60;;;4.90;52.10;;;;;;5140272;27;20106;-32
2022/02/01 11:19:50;;;;;;;9.07;3.40;;;4.90;51.80;;;;;;5139655;27;20019;-42
2022/02/01 11:22:37;;;;;;;8.65;3.35;;;4.90;51.40;;;;;;5139887;27;20127;-42
2022/02/01 11:25:20;;;;;;;11.18;3.72;;;4.90;50.90;;;;;;5139692;27;20019;-32
2022/02/01 11:27:59;;;;;;;9.00;3.78;;;4.80;50.80;;;;;;5122569;27;20034;-41
2022/02/01 11:30:44;;;;;;;6.03;3.17;;;4.90;51.10;;;;;;5139467;27;20023;-33
2022/02/01 11:33:11;;;;;;;9.55;3.90;;;4.90;51.00;;;;;;5140004;27;20027;-32
2022/02/01 11:35:38;;;;;;;10.48;3.13;;;4.90;50.80;;;;;;5139407;27;20055;-42
2022/02/01 11:38:15;;;;;;;6.78;3.40;;;5.00;50.40;;;;;;5140328;27;20130;-33
2022/02/01 11:40:48;;;;;;;12.52;3.78;;;5.10;50.10;;;;;;5139199;27;20098;-37
2022/02/01 11:43:17;;;;;;;8.85;3.28;;;5.20;50.70;;;;;;5140053;27;20046;-32
2022/02/01 11:45:53;;;;;;;10.68;4.75;;;5.40;50.60;;;;;;5139204;27;20023;-34
2022/02/01 11:48:25;;;;;;;8.02;2.85;;;5.60;50.40;;;;;;5139572;27;20415;-42
2022/02/01 11:50:53;;;;;;;5.55;2.97;;;5.80;49.70;;;;;;5139214;27;20029;-41
2022/02/01 11:53:25;;;;;;;5.20;2.60;;;6.00;48.60;;;;;;5139736;27;20110;-32
2022/02/01 11:55:52;;;;;;;8.40;2.97;;;6.20;48.60;;;;;;5139379;27;20084;-42
2022/02/01 11:58:29;;;;;;;6.30;3.10;;;6.40;48.10;;;;;;5139786;27;20050;-32
2022/02/01 12:00:54;;;;;;;11.35;3.60;;;6.60;47.10;;;;;;5139196;27;20035;-42
2022/02/01 12:03:28;;;;;;;9.27;3.95;;;6.70;47.30;;;;;;5139256;27;20404;-32
2022/02/01 12:05:58;;;;;;;6.13;2.95;;;6.90;47.00;;;;;;5138826;27;20050;-36
2022/02/01 12:08:31;;;;;;;9.73;3.67;;;6.90;46.20;;;;;;5139008;27;20051;-32
2022/02/01 12:10:58;;;;;;;7.60;3.50;;;6.90;46.50;;;;;;5137890;27;20038;-32
2022/02/01 12:13:25;;;;;;;6.50;3.38;;;7.00;46.50;;;;;;5136645;27;20083;-34
2022/02/01 12:15:54;;;;;;;7.65;3.25;;;7.00;46.30;;;;;;5137954;27;20035;-32
2022/02/01 12:18:42;;;;;;;5.55;2.92;;;7.00;45.20;;;;;;5136673;27;20119;-32
2022/02/01 12:21:26;;;;;;;13.45;4.35;;;6.90;44.70;;;;;;5138883;27;20027;-33
2022/02/01 12:23:54;;;;;;;7.63;3.60;;;6.90;44.90;;;;;;5139018;27;20122;-34
2022/02/01 12:26:32;;;;;;;5.65;3.13;;;6.90;45.80;;;;;;5138470;27;20363;-32
2022/02/01 12:29:00;;;;;;;7.90;3.05;;;7.00;44.90;;;;;;5138519;27;20042;-33
2022/02/01 12:31:28;;;;;;;8.85;3.40;;;7.00;45.60;;;;;;5138018;27;20063;-42
2022/02/01 12:33:56;;;;;;;12.43;6.47;;;7.10;44.60;;;;;;5138886;27;20055;-41
2022/02/01 12:36:30;;;;;;;7.68;3.33;;;7.00;44.40;;;;;;5138513;27;20030;-40
2022/02/01 12:39:25;;;;;;;6.50;3.90;;;7.00;44.00;;;;;;5138886;27;20035;-33
2022/02/01 12:42:01;;;;;;;5.70;3.17;;;6.80;43.60;;;;;;5138265;27;20055;-40
2022/02/01 12:46:59;;;;;;;6.47;3.30;;;6.40;43.90;;;;;;5138119;27;20038;-42
2022/02/01 12:49:42;;;;;;;8.35;4.07;;;6.20;44.00;;;;;;5137821;27;20024;-41
2022/02/01 12:52:21;;;;;;;7.43;3.55;;;6.00;43.60;;;;;;5137820;27;20115;-41
2022/02/01 12:54:48;;;;;;;7.68;3.10;;;5.80;44.20;;;;;;5137929;27;20057;-33
2022/02/01 12:57:18;;;;;;;9.98;3.20;;;5.60;44.00;;;;;;5137836;27;20130;-41
2022/02/01 13:00:04;;;;;;;8.73;3.03;;;5.50;44.50;;;;;;5116498;27;20086;-32
2022/02/01 13:02:33;;;;;;;10.90;2.85;;;5.30;44.50;;;;;;5137970;27;20075;-32
2022/02/01 13:05:04;;;;;;;6.45;3.03;;;5.20;44.70;;;;;;5137786;27;20038;-32
2022/02/01 13:07:55;;;;;;;6.07;3.30;;;5.20;45.00;;;;;;5137795;27;20028;-40
2022/02/01 13:21:16;;;;;;;5.03;3.38;;;4.70;46.00;;;;;;5137327;27;20364;-41
2022/02/01 13:23:56;;;;;;;7.88;2.83;;;4.70;46.10;;;;;;5137640;27;20038;-32
2022/02/01 13:26:27;;;;;;;8.65;3.33;;;4.60;45.90;;;;;;5136890;27;20530;-42
2022/02/01 13:29:07;;;;;;;9.48;4.00;;;4.60;46.20;;;;;;5137643;27;20377;-41
2022/02/01 13:31:46;;;;;;;4.80;2.88;;;4.60;46.50;;;;;;5137210;27;20025;-33
2022/02/01 13:34:13;;;;;;;8.80;2.95;;;4.60;46.50;;;;;;5137211;27;20031;-32
2022/02/01 13:36:56;;;;;;;8.40;3.33;;;4.50;46.00;;;;;;5137071;27;20051;-32
2022/02/01 13:39:30;;;;;;;8.57;3.42;;;4.50;46.10;;;;;;5137069;27;20038;-33
2022/02/01 13:42:05;;;;;;;4.18;2.90;;;4.50;45.80;;;;;;5137049;27;20327;-32
2022/02/01 13:44:31;;;;;;;11.05;3.70;;;4.50;45.90;;;;;;5136292;27;20423;-32
2022/02/01 13:47:06;;;;;;;6.22;2.58;;;4.50;46.10;;;;;;5137207;27;20106;-41
2022/02/01 13:49:33;;;;;;;7.53;3.25;;;4.50;46.10;;;;;;5136679;27;20073;-32
2022/02/01 13:51:59;;;;;;;6.38;3.10;;;4.50;46.20;;;;;;5137048;27;20336;-42
2022/02/01 13:54:37;;;;;;;6.75;3.72;;;4.40;46.20;;;;;;5136582;27;20019;-32
2022/02/01 13:57:18;;;;;;;6.75;3.85;;;4.50;46.10;;;;;;5118753;27;20031;-42
2022/02/01 13:59:44;;;;;;;;;;;4.50;46.10;;;;;;5136958;27;20058;-32
2022/02/01 14:02:19;;;;;;;14.13;5.15;;;4.50;46.20;;;;;;5136830;27;20292;-32
2022/02/01 14:05:00;;;;;;;5.53;3.08;;;4.50;46.30;;;;;;5135549;27;20066;-36
2022/02/01 14:10:07;;;;;;;11.68;3.47;;;4.40;46.10;;;;;;5135331;27;20110;-34
2022/02/01 14:36:27;;;;;;;11.88;3.70;;;4.10;47.30;;;;;;5139779;27;20026;-33
2022/02/01 14:44:26;;;;;;;6.88;3.33;;;3.90;47.50;;;;;;5140383;27;20058;-32
2022/02/01 14:46:49;;;;;;;10.75;4.55;;;3.90;47.30;;;;;;5139875;27;20035;-41
2022/02/01 14:49:15;;;;;;;11.10;5.22;;;3.80;47.40;;;;;;5140307;27;20030;-41
2022/02/01 14:51:41;;;;;;;9.50;4.10;;;3.80;47.40;;;;;;5140228;27;20412;-41
2022/02/01 14:54:11;;;;;;;9.90;4.10;;;3.70;47.40;;;;;;5140552;27;20375;-32
2022/02/01 14:56:39;;;;;;;12.38;3.60;;;3.70;47.50;;;;;;5140180;27;20023;-31
2022/02/01 15:07:13;;;;;;;14.27;4.55;;;3.40;48.20;;;;;;5140084;27;20023;-41
2022/02/01 15:14:50;;;;;;;20.95;6.03;;;3.30;48.80;;;;;;5139806;27;20027;-41
2022/02/01 15:17:16;;;;;;;19.17;8.70;;;3.30;48.90;;;;;;5140229;27;20027;-32
2022/02/01 15:19:44;;;;;;;11.85;4.93;;;3.30;49.00;;;;;;5139612;27;20336;-40
2022/02/01 15:22:09;;;;;;;12.88;4.95;;;3.20;49.00;;;;;;5139853;27;20027;-32
2022/02/01 15:24:36;;;;;;;8.75;4.05;;;3.20;49.10;;;;;;5139293;27;20035;-32
2022/02/01 15:27:03;;;;;;;11.93;5.63;;;3.20;49.30;;;;;;5139898;27;20027;-34
2022/02/01 15:29:28;;;;;;;14.32;6.38;;;3.10;49.30;;;;;;5139129;27;20027;-39